createdAt,value
2023-08-02T00:01:04.321Z,0.50
2023-08-02T00:05:58.353Z,0.50
2023-08-02T00:10:50.176Z,0.43
2023-08-02T00:15:42.740Z,0.55
2023-08-02T00:20:34.625Z,0.40
2023-08-02T00:25:26.369Z,0.38
2023-08-02T00:30:18.031Z,0.30
2023-08-02T00:35:09.905Z,0.38
2023-08-02T00:40:01.694Z,0.30
2023-08-02T00:44:53.383Z,0.40
2023-08-02T00:49:46.919Z,0.93
2023-08-02T00:54:39.661Z,0.70
2023-08-02T00:59:31.707Z,0.50
2023-08-02T01:04:23.904Z,0.50
2023-08-02T01:09:41.259Z,0.40
2023-08-02T01:14:43.239Z,0.57
2023-08-02T01:19:38.407Z,0.52
2023-08-02T01:24:35.458Z,0.80
2023-08-02T01:29:28.775Z,0.50
2023-08-02T01:34:22.722Z,0.55
2023-08-02T01:39:15.832Z,0.77
2023-08-02T01:44:07.573Z,0.70
2023-08-02T01:48:59.308Z,0.90
2023-08-02T01:53:51.012Z,0.75
2023-08-02T01:58:42.765Z,0.80
2023-08-02T02:03:34.718Z,0.57
2023-08-02T02:08:26.772Z,0.50
2023-08-02T02:13:19.572Z,0.60
2023-08-02T02:18:11.354Z,0.70
2023-08-02T02:23:03.165Z,0.60
2023-08-02T02:27:54.904Z,0.70
2023-08-02T02:32:46.647Z,0.60
2023-08-02T02:37:38.345Z,0.50
2023-08-02T02:42:30.024Z,0.50
2023-08-02T02:47:21.658Z,0.50
2023-08-02T02:52:13.387Z,0.50
2023-08-02T02:57:05.268Z,0.43
2023-08-02T03:01:56.998Z,0.60
2023-08-02T03:06:48.734Z,0.65
2023-08-02T03:11:40.469Z,0.40
2023-08-02T03:16:32.210Z,0.30
2023-08-02T03:21:23.894Z,0.30
2023-08-02T03:26:15.523Z,0.30
2023-08-02T03:31:07.678Z,0.30
2023-08-02T03:35:59.709Z,0.30
2023-08-02T03:40:52.173Z,0.40
2023-08-02T03:45:43.864Z,0.30
2023-08-02T03:50:35.792Z,0.20
2023-08-02T03:55:27.588Z,0.17
2023-08-02T04:00:19.324Z,0.20
2023-08-02T04:05:11.822Z,0.20
2023-08-02T04:10:04.209Z,0.25
2023-08-02T04:14:56.245Z,0.20
2023-08-02T04:19:47.995Z,0.20
2023-08-02T04:24:39.659Z,0.20
2023-08-02T04:29:31.334Z,0.20
2023-08-02T04:34:23.042Z,0.10
2023-08-02T04:39:16.537Z,0.10
2023-08-02T04:44:08.297Z,0.13
2023-08-02T04:48:59.983Z,0.20
2023-08-02T04:53:51.760Z,0.20
2023-08-02T04:58:43.716Z,0.55
2023-08-02T05:03:36.411Z,0.20
2023-08-02T05:08:31.402Z,0.10
2023-08-02T05:13:27.175Z,0.10
2023-08-02T05:18:19.158Z,0.15
2023-08-02T05:23:10.932Z,0.20
2023-08-02T05:28:03.178Z,0.20
2023-08-02T05:32:55.690Z,0.10
2023-08-02T05:37:47.518Z,0.30
2023-08-02T05:42:39.387Z,0.10
2023-08-02T05:47:31.763Z,0.10
2023-08-02T05:52:23.698Z,0.00
2023-08-02T05:57:15.522Z,0.10
2023-08-02T06:02:08.458Z,0.00
2023-08-02T06:07:00.147Z,0.10
2023-08-02T06:11:51.795Z,0.10
2023-08-02T06:16:43.465Z,0.00
2023-08-02T06:21:35.719Z,0.10
2023-08-02T06:26:28.300Z,0.08
2023-08-02T06:31:19.949Z,0.05
2023-08-02T06:36:11.897Z,0.00
2023-08-02T06:41:04.322Z,0.00
2023-08-02T06:45:56.110Z,0.03
2023-08-02T06:50:47.902Z,0.00
2023-08-02T06:55:39.815Z,0.00
2023-08-02T07:00:31.779Z,0.00
2023-08-02T07:05:25.238Z,0.05
2023-08-02T07:10:17.847Z,0.00
2023-08-02T07:15:10.052Z,0.00
2023-08-02T07:20:01.746Z,0.05
2023-08-02T07:24:53.365Z,0.05
2023-08-02T07:29:50.295Z,0.10
2023-08-02T07:34:42.226Z,0.07
2023-08-02T07:39:34.732Z,0.05
2023-08-02T07:44:26.936Z,0.10
2023-08-02T07:49:18.613Z,0.10
2023-08-02T07:54:10.339Z,0.10
2023-08-02T07:59:04.178Z,0.10
2023-08-02T08:03:56.420Z,0.08
2023-08-02T08:08:52.259Z,0.10
2023-08-02T08:13:43.912Z,0.10
2023-08-02T08:18:35.798Z,0.20
2023-08-02T08:23:27.726Z,0.60
2023-08-02T08:28:19.368Z,0.10
2023-08-02T08:33:11.639Z,0.17
2023-08-02T08:38:04.084Z,0.13
2023-08-02T08:42:57.012Z,0.10
2023-08-02T08:47:50.028Z,0.20
2023-08-02T08:52:45.413Z,0.10
2023-08-02T08:57:39.300Z,0.25
2023-08-02T09:02:33.324Z,0.40
2023-08-02T09:07:25.029Z,0.20
2023-08-02T09:12:16.720Z,0.20
2023-08-02T09:17:08.377Z,0.10
2023-08-02T09:22:09.011Z,0.30
2023-08-02T09:27:00.691Z,0.20
2023-08-02T09:31:55.420Z,0.30
2023-08-02T09:36:47.189Z,0.60
2023-08-02T09:41:57.805Z,0.30
2023-08-02T09:46:50.562Z,0.20
2023-08-02T09:51:44.266Z,0.40
2023-08-02T09:56:37.528Z,0.20
2023-08-02T10:01:30.839Z,0.30
2023-08-02T10:06:28.538Z,0.20
2023-08-02T10:11:23.131Z,0.20
2023-08-02T10:16:15.436Z,0.28
2023-08-02T10:21:08.262Z,0.20
2023-08-02T10:26:00.889Z,0.20
2023-08-02T10:30:52.708Z,0.28
2023-08-02T10:36:04.190Z,0.20
2023-08-02T10:41:12.851Z,0.22
2023-08-02T10:46:26.656Z,0.20
2023-08-02T10:51:38.929Z,0.20
2023-08-02T10:56:30.608Z,0.30
2023-08-02T11:01:22.481Z,0.20
2023-08-02T11:06:33.624Z,0.20
2023-08-02T11:11:32.124Z,0.20
2023-08-02T11:16:24.424Z,0.30
2023-08-02T11:21:16.419Z,0.20
2023-08-02T11:26:14.291Z,0.20
2023-08-02T11:31:06.930Z,0.20
2023-08-02T11:35:58.763Z,0.20
2023-08-02T11:40:50.421Z,0.20
2023-08-02T11:45:42.088Z,0.20
2023-08-02T11:50:34.637Z,0.20
2023-08-02T11:55:26.442Z,0.20
2023-08-02T12:00:18.397Z,0.20
2023-08-02T12:05:22.335Z,0.20
2023-08-02T12:10:31.903Z,0.20
2023-08-02T12:15:23.883Z,0.20
2023-08-02T12:20:35.520Z,0.22
2023-08-02T12:25:27.482Z,0.20
2023-08-02T12:30:19.172Z,0.10
2023-08-02T12:35:13.279Z,0.20
2023-08-02T12:40:06.206Z,0.20
2023-08-02T12:45:07.941Z,0.15
2023-08-02T12:50:07.972Z,0.10
2023-08-02T12:55:01.023Z,0.20
2023-08-02T12:59:52.745Z,0.13
2023-08-02T13:04:44.609Z,0.10
2023-08-02T13:09:39.696Z,0.20
2023-08-02T13:14:31.325Z,0.20
2023-08-02T13:19:22.961Z,0.25
2023-08-02T13:24:14.654Z,0.30
2023-08-02T13:29:06.359Z,0.20
2023-08-02T13:33:58.048Z,0.20
2023-08-02T13:38:49.687Z,0.10
2023-08-02T13:43:41.360Z,0.43
2023-08-02T13:48:33.020Z,0.20
2023-08-02T13:53:24.845Z,0.20
2023-08-02T13:58:16.820Z,0.20
2023-08-02T14:03:08.675Z,0.13
2023-08-02T14:08:00.555Z,0.20
2023-08-02T14:12:52.268Z,0.20
2023-08-02T14:17:44.014Z,0.40
2023-08-02T14:22:35.791Z,0.32
2023-08-02T14:27:27.514Z,0.30
2023-08-02T14:32:19.193Z,0.40
2023-08-02T14:37:10.900Z,0.30
2023-08-02T14:42:04.036Z,0.40
2023-08-02T14:46:55.718Z,0.40
2023-08-02T14:51:47.445Z,0.30
2023-08-02T14:56:39.136Z,0.68
2023-08-02T15:01:30.843Z,0.30
2023-08-02T15:06:26.230Z,0.28
2023-08-02T15:11:18.018Z,0.28
2023-08-02T15:16:09.629Z,0.20
2023-08-02T15:21:01.432Z,0.20
2023-08-02T15:25:53.106Z,0.30
2023-08-02T15:30:44.988Z,0.30
2023-08-02T15:35:36.848Z,0.30
2023-08-02T15:40:28.675Z,0.30
2023-08-02T15:45:20.595Z,0.30
2023-08-02T15:50:12.815Z,0.20
2023-08-02T15:55:05.193Z,0.20
2023-08-02T15:59:56.895Z,0.30
2023-08-02T16:04:48.655Z,0.30
2023-08-02T16:09:40.350Z,0.20
2023-08-02T16:14:32.121Z,0.20
2023-08-02T16:19:23.732Z,0.20
2023-08-02T16:24:16.976Z,0.20
2023-08-02T16:29:10.470Z,0.20
2023-08-02T16:34:02.169Z,0.35
2023-08-02T16:38:53.857Z,0.20
2023-08-02T16:43:45.506Z,0.30
2023-08-02T16:48:37.285Z,0.25
2023-08-02T16:53:29.559Z,0.20
2023-08-02T16:58:22.989Z,0.10
2023-08-02T17:03:16.488Z,0.20
2023-08-02T17:08:09.774Z,0.10
2023-08-02T17:13:01.719Z,0.05
2023-08-02T17:17:53.431Z,0.10
2023-08-02T17:22:45.118Z,0.20
2023-08-02T17:27:36.842Z,0.10
2023-08-02T17:32:28.600Z,0.20
2023-08-02T17:37:20.246Z,0.10
2023-08-02T17:42:12.031Z,0.10
2023-08-02T17:47:03.984Z,0.10
2023-08-02T17:51:55.596Z,0.13
2023-08-02T17:56:47.270Z,0.10
2023-08-02T18:01:38.968Z,0.10
2023-08-02T18:06:30.847Z,0.10
2023-08-02T18:11:23.134Z,0.17
2023-08-02T18:16:14.853Z,0.15
2023-08-02T18:21:06.709Z,0.20
2023-08-02T18:25:58.823Z,0.10
2023-08-02T18:31:02.688Z,0.10
2023-08-02T18:36:05.849Z,0.30
2023-08-02T18:40:57.513Z,0.20
2023-08-02T18:45:49.263Z,0.20
2023-08-02T18:50:41.055Z,0.20
2023-08-02T18:55:37.262Z,0.32
2023-08-02T19:00:29.187Z,0.20
2023-08-02T19:05:21.038Z,0.30
2023-08-02T19:10:12.897Z,0.32
2023-08-02T19:15:06.028Z,0.30
2023-08-02T19:19:57.889Z,0.30
2023-08-02T19:24:49.629Z,0.40
2023-08-02T19:29:41.581Z,0.40
2023-08-02T19:34:36.979Z,0.50
2023-08-02T19:39:41.070Z,0.45
2023-08-02T19:44:39.211Z,0.50
2023-08-02T19:49:31.671Z,0.50
2023-08-02T19:54:24.714Z,0.50
2023-08-02T19:59:16.323Z,0.50
2023-08-02T20:04:11.978Z,0.50
2023-08-02T20:09:05.886Z,0.57
2023-08-02T20:13:58.920Z,0.63
2023-08-02T20:18:52.012Z,0.70
2023-08-02T20:23:44.040Z,0.60
2023-08-02T20:28:47.440Z,0.50
2023-08-02T20:33:39.135Z,0.50
2023-08-02T20:38:31.521Z,0.50
2023-08-02T20:43:23.248Z,0.60
2023-08-02T20:48:16.254Z,0.55
2023-08-02T20:53:13.024Z,0.60
2023-08-02T20:58:09.879Z,0.70
2023-08-02T21:03:02.762Z,0.43
2023-08-02T21:07:57.484Z,0.80
2023-08-02T21:12:49.174Z,0.60
2023-08-02T21:17:44.185Z,0.50
2023-08-02T21:22:35.912Z,0.55
2023-08-02T21:27:28.516Z,0.80
2023-08-02T21:32:26.130Z,0.55
2023-08-02T21:37:24.292Z,0.47
2023-08-02T21:42:22.690Z,0.40
2023-08-02T21:47:15.763Z,0.60
2023-08-02T21:52:13.231Z,0.40
2023-08-02T21:57:05.411Z,0.82
2023-08-02T22:01:57.109Z,0.55
2023-08-02T22:06:52.254Z,1.13
2023-08-02T22:11:45.827Z,1.48
2023-08-02T22:16:38.715Z,2.50
2023-08-02T22:21:30.364Z,2.50
2023-08-02T22:26:22.130Z,2.03
2023-08-02T22:31:13.868Z,1.00
2023-08-02T22:36:05.723Z,1.05
2023-08-02T22:40:57.648Z,1.02
2023-08-02T22:45:49.321Z,0.90
2023-08-02T22:55:36.984Z,0.40
2023-08-02T23:00:31.663Z,0.60
2023-08-02T23:05:23.352Z,0.52
2023-08-02T23:10:40.985Z,0.50
2023-08-02T23:15:32.852Z,0.40
2023-08-02T23:20:47.382Z,0.40
2023-08-02T23:25:39.116Z,0.40
2023-08-02T23:30:33.818Z,0.30
2023-08-02T23:35:25.501Z,0.43
2023-08-02T23:40:17.131Z,0.30
2023-08-02T23:45:09.165Z,0.40
2023-08-02T23:50:00.886Z,0.30
2023-08-02T23:54:52.570Z,0.35
2023-08-02T23:59:44.292Z,0.32
